sensor_id;sensor_type;location;lat;lon;timestamp;P1;durP1;ratioP1;P2;durP2;ratioP2
10416;SDS011;62605;49.432;8.680;2022-08-19T00:01:25;10.48;;;8.38;;
10416;SDS011;62605;49.432;8.680;2022-08-19T00:03:54;11.52;;;8.93;;
10416;SDS011;62605;49.432;8.680;2022-08-19T00:06:21;10.90;;;8.50;;
10416;SDS011;62605;49.432;8.680;2022-08-19T00:08:48;16.08;;;9.52;;
10416;SDS011;62605;49.432;8.680;2022-08-19T00:11:16;12.05;;;9.05;;
10416;SDS011;62605;49.432;8.680;2022-08-19T00:13:44;13.98;;;9.38;;
10416;SDS011;62605;49.432;8.680;2022-08-19T00:16:12;10.82;;;8.90;;
10416;SDS011;62605;49.432;8.680;2022-08-19T00:18:39;12.25;;;8.88;;
10416;SDS011;62605;49.432;8.680;2022-08-19T00:21:07;12.38;;;9.15;;
10416;SDS011;62605;49.432;8.680;2022-08-19T00:23:34;13.65;;;8.48;;
10416;SDS011;62605;49.432;8.680;2022-08-19T00:26:02;12.70;;;8.85;;
10416;SDS011;62605;49.432;8.680;2022-08-19T00:28:30;11.98;;;9.40;;
10416;SDS011;62605;49.432;8.680;2022-08-19T00:30:58;12.75;;;9.55;;
10416;SDS011;62605;49.432;8.680;2022-08-19T00:33:26;13.35;;;9.48;;
10416;SDS011;62605;49.432;8.680;2022-08-19T00:35:54;13.15;;;9.13;;
10416;SDS011;62605;49.432;8.680;2022-08-19T00:38:21;14.27;;;9.98;;
10416;SDS011;62605;49.432;8.680;2022-08-19T00:40:48;13.75;;;9.15;;
10416;SDS011;62605;49.432;8.680;2022-08-19T00:43:18;12.82;;;9.23;;
10416;SDS011;62605;49.432;8.680;2022-08-19T00:45:48;16.15;;;9.70;;
10416;SDS011;62605;49.432;8.680;2022-08-19T00:48:15;11.68;;;9.68;;
10416;SDS011;62605;49.432;8.680;2022-08-19T00:50:44;12.48;;;9.50;;
10416;SDS011;62605;49.432;8.680;2022-08-19T00:53:12;15.23;;;10.10;;
10416;SDS011;62605;49.432;8.680;2022-08-19T00:55:42;12.48;;;9.50;;
10416;SDS011;62605;49.432;8.680;2022-08-19T00:58:13;13.30;;;9.55;;
10416;SDS011;62605;49.432;8.680;2022-08-19T01:00:43;14.43;;;9.05;;
10416;SDS011;62605;49.432;8.680;2022-08-19T01:03:12;13.23;;;9.70;;
10416;SDS011;62605;49.432;8.680;2022-08-19T01:05:41;12.80;;;9.05;;
10416;SDS011;62605;49.432;8.680;2022-08-19T01:08:11;12.93;;;9.50;;
10416;SDS011;62605;49.432;8.680;2022-08-19T01:10:41;14.13;;;9.43;;
10416;SDS011;62605;49.432;8.680;2022-08-19T01:13:11;11.77;;;9.02;;
10416;SDS011;62605;49.432;8.680;2022-08-19T01:15:41;11.82;;;9.02;;
10416;SDS011;62605;49.432;8.680;2022-08-19T01:18:12;13.80;;;9.60;;
10416;SDS011;62605;49.432;8.680;2022-08-19T01:20:41;13.50;;;9.43;;
10416;SDS011;62605;49.432;8.680;2022-08-19T01:23:10;15.93;;;9.52;;
10416;SDS011;62605;49.432;8.680;2022-08-19T01:25:40;12.43;;;9.02;;
10416;SDS011;62605;49.432;8.680;2022-08-19T01:28:14;14.30;;;9.25;;
10416;SDS011;62605;49.432;8.680;2022-08-19T01:30:42;12.85;;;9.85;;
10416;SDS011;62605;49.432;8.680;2022-08-19T01:33:10;13.32;;;9.23;;
10416;SDS011;62605;49.432;8.680;2022-08-19T01:35:38;14.45;;;8.80;;
10416;SDS011;62605;49.432;8.680;2022-08-19T01:38:08;14.05;;;9.10;;
10416;SDS011;62605;49.432;8.680;2022-08-19T01:40:39;14.93;;;9.88;;
10416;SDS011;62605;49.432;8.680;2022-08-19T01:43:07;15.32;;;9.57;;
10416;SDS011;62605;49.432;8.680;2022-08-19T01:45:34;12.70;;;9.77;;
10416;SDS011;62605;49.432;8.680;2022-08-19T01:48:05;13.93;;;9.45;;
10416;SDS011;62605;49.432;8.680;2022-08-19T01:50:33;13.02;;;9.63;;
10416;SDS011;62605;49.432;8.680;2022-08-19T01:53:03;11.98;;;9.00;;
10416;SDS011;62605;49.432;8.680;2022-08-19T01:55:33;17.55;;;10.55;;
10416;SDS011;62605;49.432;8.680;2022-08-19T01:58:04;12.25;;;9.07;;
10416;SDS011;62605;49.432;8.680;2022-08-19T02:00:34;14.55;;;10.32;;
10416;SDS011;62605;49.432;8.680;2022-08-19T02:03:02;13.90;;;10.10;;
10416;SDS011;62605;49.432;8.680;2022-08-19T02:05:29;14.80;;;10.93;;
10416;SDS011;62605;49.432;8.680;2022-08-19T02:07:56;13.93;;;9.85;;
10416;SDS011;62605;49.432;8.680;2022-08-19T02:10:24;12.65;;;8.95;;
10416;SDS011;62605;49.432;8.680;2022-08-19T02:12:51;13.68;;;9.55;;
10416;SDS011;62605;49.432;8.680;2022-08-19T02:15:20;12.88;;;9.82;;
10416;SDS011;62605;49.432;8.680;2022-08-19T02:17:47;14.02;;;10.38;;
10416;SDS011;62605;49.432;8.680;2022-08-19T02:20:15;12.77;;;9.65;;
10416;SDS011;62605;49.432;8.680;2022-08-19T02:22:42;13.68;;;9.27;;
10416;SDS011;62605;49.432;8.680;2022-08-19T02:25:10;13.70;;;10.55;;
10416;SDS011;62605;49.432;8.680;2022-08-19T02:27:38;16.70;;;11.13;;
10416;SDS011;62605;49.432;8.680;2022-08-19T02:30:07;14.82;;;10.40;;
10416;SDS011;62605;49.432;8.680;2022-08-19T02:32:37;16.52;;;11.00;;
10416;SDS011;62605;49.432;8.680;2022-08-19T02:35:05;15.07;;;10.95;;
10416;SDS011;62605;49.432;8.680;2022-08-19T02:37:33;17.20;;;10.68;;
10416;SDS011;62605;49.432;8.680;2022-08-19T02:40:17;15.65;;;10.45;;
10416;SDS011;62605;49.432;8.680;2022-08-19T02:42:45;17.42;;;10.38;;
10416;SDS011;62605;49.432;8.680;2022-08-19T02:45:12;16.38;;;10.60;;
10416;SDS011;62605;49.432;8.680;2022-08-19T02:47:41;15.30;;;10.38;;
10416;SDS011;62605;49.432;8.680;2022-08-19T02:50:08;15.02;;;10.60;;
10416;SDS011;62605;49.432;8.680;2022-08-19T02:52:36;14.52;;;10.43;;
10416;SDS011;62605;49.432;8.680;2022-08-19T02:55:04;13.60;;;10.63;;
10416;SDS011;62605;49.432;8.680;2022-08-19T02:57:32;16.80;;;10.60;;
10416;SDS011;62605;49.432;8.680;2022-08-19T02:59:59;14.50;;;9.65;;
10416;SDS011;62605;49.432;8.680;2022-08-19T03:02:27;15.63;;;10.77;;
10416;SDS011;62605;49.432;8.680;2022-08-19T03:04:57;16.70;;;10.70;;
10416;SDS011;62605;49.432;8.680;2022-08-19T03:07:24;12.55;;;9.55;;
10416;SDS011;62605;49.432;8.680;2022-08-19T03:09:51;16.77;;;10.23;;
10416;SDS011;62605;49.432;8.680;2022-08-19T03:12:18;15.57;;;9.73;;
10416;SDS011;62605;49.432;8.680;2022-08-19T03:14:45;15.23;;;10.40;;
10416;SDS011;62605;49.432;8.680;2022-08-19T03:17:12;15.07;;;10.35;;
10416;SDS011;62605;49.432;8.680;2022-08-19T03:19:40;17.88;;;11.38;;
10416;SDS011;62605;49.432;8.680;2022-08-19T03:22:09;16.17;;;11.25;;
10416;SDS011;62605;49.432;8.680;2022-08-19T03:24:37;15.07;;;10.77;;
10416;SDS011;62605;49.432;8.680;2022-08-19T03:27:05;16.92;;;11.25;;
10416;SDS011;62605;49.432;8.680;2022-08-19T03:29:32;18.70;;;11.10;;
10416;SDS011;62605;49.432;8.680;2022-08-19T03:32:03;15.05;;;11.65;;
10416;SDS011;62605;49.432;8.680;2022-08-19T03:34:32;14.20;;;10.77;;
10416;SDS011;62605;49.432;8.680;2022-08-19T03:37:03;13.63;;;9.85;;
10416;SDS011;62605;49.432;8.680;2022-08-19T03:39:33;14.45;;;10.32;;
10416;SDS011;62605;49.432;8.680;2022-08-19T03:42:03;15.82;;;10.95;;
10416;SDS011;62605;49.432;8.680;2022-08-19T03:44:31;14.05;;;10.20;;
10416;SDS011;62605;49.432;8.680;2022-08-19T03:46:58;15.70;;;11.05;;
10416;SDS011;62605;49.432;8.680;2022-08-19T03:49:27;16.70;;;10.75;;
10416;SDS011;62605;49.432;8.680;2022-08-19T03:51:56;12.23;;;10.00;;
10416;SDS011;62605;49.432;8.680;2022-08-19T03:54:25;15.63;;;10.93;;
10416;SDS011;62605;49.432;8.680;2022-08-19T03:56:55;17.90;;;10.75;;
10416;SDS011;62605;49.432;8.680;2022-08-19T03:59:24;17.33;;;11.05;;
10416;SDS011;62605;49.432;8.680;2022-08-19T04:01:54;15.25;;;10.25;;
10416;SDS011;62605;49.432;8.680;2022-08-19T04:04:23;14.40;;;10.45;;
10416;SDS011;62605;49.432;8.680;2022-08-19T04:06:51;16.00;;;10.75;;
10416;SDS011;62605;49.432;8.680;2022-08-19T04:09:19;15.75;;;10.73;;
10416;SDS011;62605;49.432;8.680;2022-08-19T04:11:47;14.18;;;9.75;;
10416;SDS011;62605;49.432;8.680;2022-08-19T04:14:20;13.45;;;9.25;;
10416;SDS011;62605;49.432;8.680;2022-08-19T04:16:50;14.35;;;9.60;;
10416;SDS011;62605;49.432;8.680;2022-08-19T04:19:17;14.90;;;9.95;;
10416;SDS011;62605;49.432;8.680;2022-08-19T04:21:46;14.80;;;10.23;;
10416;SDS011;62605;49.432;8.680;2022-08-19T04:24:16;15.20;;;10.52;;
10416;SDS011;62605;49.432;8.680;2022-08-19T04:26:43;15.70;;;10.20;;
10416;SDS011;62605;49.432;8.680;2022-08-19T04:29:13;17.70;;;11.60;;
10416;SDS011;62605;49.432;8.680;2022-08-19T04:31:43;17.98;;;11.45;;
10416;SDS011;62605;49.432;8.680;2022-08-19T04:34:12;16.55;;;10.55;;
10416;SDS011;62605;49.432;8.680;2022-08-19T04:36:41;16.00;;;11.25;;
10416;SDS011;62605;49.432;8.680;2022-08-19T04:39:10;16.58;;;10.65;;
10416;SDS011;62605;49.432;8.680;2022-08-19T04:41:39;16.42;;;11.27;;
10416;SDS011;62605;49.432;8.680;2022-08-19T04:44:24;15.15;;;9.93;;
10416;SDS011;62605;49.432;8.680;2022-08-19T04:46:57;15.63;;;10.55;;
10416;SDS011;62605;49.432;8.680;2022-08-19T04:49:24;17.05;;;10.63;;
10416;SDS011;62605;49.432;8.680;2022-08-19T04:51:52;16.55;;;11.10;;
10416;SDS011;62605;49.432;8.680;2022-08-19T04:54:21;17.02;;;10.40;;
10416;SDS011;62605;49.432;8.680;2022-08-19T04:56:50;15.30;;;11.10;;
10416;SDS011;62605;49.432;8.680;2022-08-19T04:59:18;14.23;;;10.23;;
10416;SDS011;62605;49.432;8.680;2022-08-19T05:01:46;16.85;;;12.07;;
10416;SDS011;62605;49.432;8.680;2022-08-19T05:04:17;16.20;;;11.82;;
10416;SDS011;62605;49.432;8.680;2022-08-19T05:06:45;17.40;;;11.20;;
10416;SDS011;62605;49.432;8.680;2022-08-19T05:09:13;18.17;;;12.20;;
10416;SDS011;62605;49.432;8.680;2022-08-19T05:11:42;16.42;;;11.80;;
10416;SDS011;62605;49.432;8.680;2022-08-19T05:14:10;16.35;;;11.02;;
10416;SDS011;62605;49.432;8.680;2022-08-19T05:16:39;17.23;;;11.00;;
10416;SDS011;62605;49.432;8.680;2022-08-19T05:19:06;19.80;;;11.70;;
10416;SDS011;62605;49.432;8.680;2022-08-19T05:22:07;16.33;;;11.50;;
10416;SDS011;62605;49.432;8.680;2022-08-19T05:24:51;21.58;;;11.55;;
10416;SDS011;62605;49.432;8.680;2022-08-19T05:27:18;17.63;;;10.73;;
10416;SDS011;62605;49.432;8.680;2022-08-19T05:29:45;18.42;;;11.85;;
10416;SDS011;62605;49.432;8.680;2022-08-19T05:32:12;15.43;;;10.85;;
10416;SDS011;62605;49.432;8.680;2022-08-19T05:34:40;19.20;;;11.20;;
10416;SDS011;62605;49.432;8.680;2022-08-19T05:37:08;17.05;;;11.75;;
10416;SDS011;62605;49.432;8.680;2022-08-19T05:39:36;17.02;;;11.55;;
10416;SDS011;62605;49.432;8.680;2022-08-19T05:42:06;15.35;;;11.52;;
10416;SDS011;62605;49.432;8.680;2022-08-19T05:44:35;18.70;;;10.85;;
10416;SDS011;62605;49.432;8.680;2022-08-19T05:47:04;15.43;;;10.57;;
10416;SDS011;62605;49.432;8.680;2022-08-19T05:49:33;18.30;;;11.27;;
10416;SDS011;62605;49.432;8.680;2022-08-19T05:52:01;16.55;;;10.90;;
10416;SDS011;62605;49.432;8.680;2022-08-19T05:54:31;16.58;;;11.63;;
10416;SDS011;62605;49.432;8.680;2022-08-19T05:57:00;17.67;;;12.02;;
10416;SDS011;62605;49.432;8.680;2022-08-19T05:59:27;16.23;;;10.88;;
10416;SDS011;62605;49.432;8.680;2022-08-19T06:01:55;18.83;;;12.10;;
10416;SDS011;62605;49.432;8.680;2022-08-19T06:04:22;19.98;;;11.50;;
10416;SDS011;62605;49.432;8.680;2022-08-19T06:06:51;17.00;;;11.95;;
10416;SDS011;62605;49.432;8.680;2022-08-19T06:09:19;20.30;;;12.02;;
10416;SDS011;62605;49.432;8.680;2022-08-19T06:11:49;21.17;;;12.90;;
10416;SDS011;62605;49.432;8.680;2022-08-19T06:14:20;19.90;;;12.60;;
10416;SDS011;62605;49.432;8.680;2022-08-19T06:16:49;17.13;;;11.30;;
10416;SDS011;62605;49.432;8.680;2022-08-19T06:19:18;18.10;;;12.63;;
10416;SDS011;62605;49.432;8.680;2022-08-19T06:21:47;17.17;;;11.35;;
10416;SDS011;62605;49.432;8.680;2022-08-19T06:24:17;18.08;;;11.70;;
10416;SDS011;62605;49.432;8.680;2022-08-19T06:26:47;16.08;;;11.15;;
10416;SDS011;62605;49.432;8.680;2022-08-19T06:29:18;18.67;;;11.90;;
10416;SDS011;62605;49.432;8.680;2022-08-19T06:31:48;18.38;;;12.35;;
10416;SDS011;62605;49.432;8.680;2022-08-19T06:34:17;17.55;;;12.02;;
10416;SDS011;62605;49.432;8.680;2022-08-19T06:36:46;15.38;;;10.48;;
10416;SDS011;62605;49.432;8.680;2022-08-19T06:39:14;15.98;;;11.48;;
10416;SDS011;62605;49.432;8.680;2022-08-19T06:41:45;17.33;;;11.63;;
10416;SDS011;62605;49.432;8.680;2022-08-19T06:44:16;16.65;;;11.57;;
10416;SDS011;62605;49.432;8.680;2022-08-19T06:46:44;17.15;;;12.00;;
10416;SDS011;62605;49.432;8.680;2022-08-19T06:49:11;18.75;;;13.18;;
10416;SDS011;62605;49.432;8.680;2022-08-19T06:51:40;20.90;;;12.18;;
10416;SDS011;62605;49.432;8.680;2022-08-19T06:54:08;15.70;;;11.35;;
10416;SDS011;62605;49.432;8.680;2022-08-19T06:56:36;17.70;;;11.63;;
10416;SDS011;62605;49.432;8.680;2022-08-19T06:59:04;16.50;;;10.77;;
10416;SDS011;62605;49.432;8.680;2022-08-19T07:01:35;14.95;;;10.30;;
10416;SDS011;62605;49.432;8.680;2022-08-19T07:04:05;15.88;;;10.90;;
10416;SDS011;62605;49.432;8.680;2022-08-19T07:06:32;17.45;;;10.73;;
10416;SDS011;62605;49.432;8.680;2022-08-19T07:08:59;15.82;;;11.65;;
10416;SDS011;62605;49.432;8.680;2022-08-19T07:11:26;15.45;;;11.00;;
10416;SDS011;62605;49.432;8.680;2022-08-19T07:13:54;13.23;;;10.23;;
10416;SDS011;62605;49.432;8.680;2022-08-19T07:16:21;13.38;;;9.57;;
10416;SDS011;62605;49.432;8.680;2022-08-19T07:18:50;17.83;;;11.40;;
10416;SDS011;62605;49.432;8.680;2022-08-19T07:21:19;14.65;;;10.48;;
10416;SDS011;62605;49.432;8.680;2022-08-19T07:23:49;13.57;;;9.45;;
10416;SDS011;62605;49.432;8.680;2022-08-19T07:26:22;13.27;;;10.00;;
10416;SDS011;62605;49.432;8.680;2022-08-19T07:28:52;13.18;;;9.75;;
10416;SDS011;62605;49.432;8.680;2022-08-19T07:31:20;18.73;;;11.57;;
10416;SDS011;62605;49.432;8.680;2022-08-19T07:33:55;13.07;;;9.52;;
10416;SDS011;62605;49.432;8.680;2022-08-19T07:36:23;13.63;;;9.65;;
10416;SDS011;62605;49.432;8.680;2022-08-19T07:38:55;12.63;;;9.32;;
10416;SDS011;62605;49.432;8.680;2022-08-19T07:41:24;14.82;;;9.52;;
10416;SDS011;62605;49.432;8.680;2022-08-19T07:43:53;10.93;;;8.63;;
10416;SDS011;62605;49.432;8.680;2022-08-19T07:46:21;11.48;;;8.60;;
10416;SDS011;62605;49.432;8.680;2022-08-19T07:48:48;11.68;;;8.55;;
10416;SDS011;62605;49.432;8.680;2022-08-19T07:51:19;10.52;;;8.57;;
10416;SDS011;62605;49.432;8.680;2022-08-19T07:53:47;11.40;;;8.52;;
10416;SDS011;62605;49.432;8.680;2022-08-19T07:56:16;11.40;;;9.00;;
10416;SDS011;62605;49.432;8.680;2022-08-19T07:58:44;15.70;;;8.85;;
10416;SDS011;62605;49.432;8.680;2022-08-19T08:01:15;14.65;;;9.30;;
10416;SDS011;62605;49.432;8.680;2022-08-19T08:03:45;12.35;;;8.48;;
10416;SDS011;62605;49.432;8.680;2022-08-19T08:06:31;11.80;;;7.95;;
10416;SDS011;62605;49.432;8.680;2022-08-19T08:09:16;11.00;;;7.97;;
10416;SDS011;62605;49.432;8.680;2022-08-19T08:11:48;14.52;;;8.10;;
10416;SDS011;62605;49.432;8.680;2022-08-19T08:14:19;11.32;;;8.60;;
10416;SDS011;62605;49.432;8.680;2022-08-19T08:16:47;9.63;;;7.60;;
10416;SDS011;62605;49.432;8.680;2022-08-19T08:19:16;10.10;;;7.50;;
10416;SDS011;62605;49.432;8.680;2022-08-19T08:21:46;9.75;;;7.70;;
10416;SDS011;62605;49.432;8.680;2022-08-19T08:24:13;10.98;;;7.60;;
10416;SDS011;62605;49.432;8.680;2022-08-19T08:26:41;15.40;;;7.70;;
10416;SDS011;62605;49.432;8.680;2022-08-19T08:29:08;10.25;;;7.68;;
10416;SDS011;62605;49.432;8.680;2022-08-19T08:31:37;10.35;;;7.15;;
10416;SDS011;62605;49.432;8.680;2022-08-19T08:34:05;10.30;;;7.75;;
10416;SDS011;62605;49.432;8.680;2022-08-19T08:36:35;8.65;;;7.30;;
10416;SDS011;62605;49.432;8.680;2022-08-19T08:39:08;9.18;;;6.88;;
10416;SDS011;62605;49.432;8.680;2022-08-19T08:41:38;9.82;;;7.45;;
10416;SDS011;62605;49.432;8.680;2022-08-19T08:44:13;8.57;;;7.07;;
10416;SDS011;62605;49.432;8.680;2022-08-19T08:46:44;11.30;;;7.65;;
10416;SDS011;62605;49.432;8.680;2022-08-19T08:49:18;10.32;;;7.15;;
10416;SDS011;62605;49.432;8.680;2022-08-19T08:51:53;11.32;;;7.32;;
10416;SDS011;62605;49.432;8.680;2022-08-19T08:54:30;8.13;;;6.78;;
10416;SDS011;62605;49.432;8.680;2022-08-19T08:57:07;9.43;;;6.85;;
10416;SDS011;62605;49.432;8.680;2022-08-19T08:59:43;6.68;;;5.80;;
10416;SDS011;62605;49.432;8.680;2022-08-19T09:02:16;7.03;;;6.15;;
10416;SDS011;62605;49.432;8.680;2022-08-19T09:04:43;8.50;;;5.50;;
10416;SDS011;62605;49.432;8.680;2022-08-19T09:07:14;7.68;;;6.07;;
10416;SDS011;62605;49.432;8.680;2022-08-19T09:09:55;7.32;;;5.78;;
10416;SDS011;62605;49.432;8.680;2022-08-19T09:12:31;8.10;;;6.18;;
10416;SDS011;62605;49.432;8.680;2022-08-19T09:15:04;7.78;;;5.43;;
10416;SDS011;62605;49.432;8.680;2022-08-19T09:17:33;6.63;;;4.80;;
10416;SDS011;62605;49.432;8.680;2022-08-19T09:20:04;7.25;;;5.10;;
10416;SDS011;62605;49.432;8.680;2022-08-19T09:22:40;10.68;;;5.00;;
10416;SDS011;62605;49.432;8.680;2022-08-19T09:25:12;8.13;;;4.15;;
10416;SDS011;62605;49.432;8.680;2022-08-19T09:27:47;6.50;;;5.18;;
10416;SDS011;62605;49.432;8.680;2022-08-19T09:30:16;4.78;;;3.72;;
10416;SDS011;62605;49.432;8.680;2022-08-19T09:32:47;4.75;;;3.75;;
10416;SDS011;62605;49.432;8.680;2022-08-19T09:35:14;4.05;;;3.65;;
10416;SDS011;62605;49.432;8.680;2022-08-19T09:37:42;4.18;;;3.58;;
10416;SDS011;62605;49.432;8.680;2022-08-19T09:40:11;6.93;;;3.60;;
10416;SDS011;62605;49.432;8.680;2022-08-19T09:42:38;5.30;;;3.70;;
10416;SDS011;62605;49.432;8.680;2022-08-19T09:45:08;4.53;;;3.63;;
10416;SDS011;62605;49.432;8.680;2022-08-19T09:47:36;7.70;;;4.65;;
10416;SDS011;62605;49.432;8.680;2022-08-19T09:50:03;4.28;;;3.88;;
10416;SDS011;62605;49.432;8.680;2022-08-19T09:52:32;5.05;;;3.75;;
10416;SDS011;62605;49.432;8.680;2022-08-19T09:55:01;4.95;;;4.13;;
10416;SDS011;62605;49.432;8.680;2022-08-19T09:57:30;4.55;;;4.00;;
10416;SDS011;62605;49.432;8.680;2022-08-19T09:59:58;5.93;;;3.83;;
10416;SDS011;62605;49.432;8.680;2022-08-19T10:02:25;6.70;;;4.03;;
10416;SDS011;62605;49.432;8.680;2022-08-19T10:04:52;5.45;;;4.15;;
10416;SDS011;62605;49.432;8.680;2022-08-19T10:07:36;6.53;;;4.03;;
10416;SDS011;62605;49.432;8.680;2022-08-19T10:10:04;6.65;;;3.83;;
10416;SDS011;62605;49.432;8.680;2022-08-19T10:12:34;4.32;;;3.92;;
10416;SDS011;62605;49.432;8.680;2022-08-19T10:15:02;4.10;;;3.50;;
10416;SDS011;62605;49.432;8.680;2022-08-19T10:17:31;4.65;;;3.90;;
10416;SDS011;62605;49.432;8.680;2022-08-19T10:20:00;5.45;;;3.63;;
10416;SDS011;62605;49.432;8.680;2022-08-19T10:22:29;4.07;;;3.78;;
10416;SDS011;62605;49.432;8.680;2022-08-19T10:24:56;5.43;;;3.83;;
10416;SDS011;62605;49.432;8.680;2022-08-19T10:27:23;4.85;;;3.30;;
10416;SDS011;62605;49.432;8.680;2022-08-19T10:29:52;4.22;;;3.10;;
10416;SDS011;62605;49.432;8.680;2022-08-19T10:32:19;3.80;;;3.33;;
10416;SDS011;62605;49.432;8.680;2022-08-19T10:34:46;4.30;;;3.78;;
10416;SDS011;62605;49.432;8.680;2022-08-19T10:37:15;4.25;;;3.30;;
10416;SDS011;62605;49.432;8.680;2022-08-19T10:39:45;3.95;;;3.60;;
10416;SDS011;62605;49.432;8.680;2022-08-19T10:42:13;4.55;;;3.78;;
10416;SDS011;62605;49.432;8.680;2022-08-19T10:44:41;4.63;;;3.17;;
10416;SDS011;62605;49.432;8.680;2022-08-19T10:47:10;3.45;;;3.15;;
10416;SDS011;62605;49.432;8.680;2022-08-19T10:49:37;3.33;;;3.03;;
10416;SDS011;62605;49.432;8.680;2022-08-19T10:52:25;3.10;;;2.80;;
10416;SDS011;62605;49.432;8.680;2022-08-19T10:55:00;3.60;;;3.17;;
10416;SDS011;62605;49.432;8.680;2022-08-19T10:57:45;3.63;;;3.33;;
10416;SDS011;62605;49.432;8.680;2022-08-19T11:00:12;3.38;;;2.80;;
10416;SDS011;62605;49.432;8.680;2022-08-19T11:02:41;3.58;;;3.28;;
10416;SDS011;62605;49.432;8.680;2022-08-19T11:05:09;3.72;;;3.25;;
10416;SDS011;62605;49.432;8.680;2022-08-19T11:07:37;3.75;;;3.30;;
10416;SDS011;62605;49.432;8.680;2022-08-19T11:10:05;3.53;;;3.22;;
10416;SDS011;62605;49.432;8.680;2022-08-19T11:12:36;3.78;;;3.42;;
10416;SDS011;62605;49.432;8.680;2022-08-19T11:15:04;3.63;;;3.33;;
10416;SDS011;62605;49.432;8.680;2022-08-19T11:17:32;4.00;;;3.60;;
10416;SDS011;62605;49.432;8.680;2022-08-19T11:20:02;7.68;;;3.65;;
10416;SDS011;62605;49.432;8.680;2022-08-19T11:22:30;5.70;;;4.35;;
10416;SDS011;62605;49.432;8.680;2022-08-19T11:24:58;4.47;;;3.65;;
10416;SDS011;62605;49.432;8.680;2022-08-19T11:27:25;5.30;;;4.10;;
10416;SDS011;62605;49.432;8.680;2022-08-19T11:29:54;5.68;;;4.07;;
10416;SDS011;62605;49.432;8.680;2022-08-19T11:32:21;5.18;;;4.22;;
10416;SDS011;62605;49.432;8.680;2022-08-19T11:34:48;4.45;;;4.10;;
10416;SDS011;62605;49.432;8.680;2022-08-19T11:37:17;4.95;;;4.50;;
10416;SDS011;62605;49.432;8.680;2022-08-19T11:39:44;6.32;;;4.60;;
10416;SDS011;62605;49.432;8.680;2022-08-19T11:42:11;4.57;;;4.18;;
10416;SDS011;62605;49.432;8.680;2022-08-19T11:44:56;6.22;;;4.07;;
10416;SDS011;62605;49.432;8.680;2022-08-19T11:47:23;4.18;;;3.88;;
10416;SDS011;62605;49.432;8.680;2022-08-19T11:49:51;3.60;;;3.30;;
10416;SDS011;62605;49.432;8.680;2022-08-19T11:52:20;4.85;;;4.32;;
10416;SDS011;62605;49.432;8.680;2022-08-19T11:54:47;4.18;;;3.83;;
10416;SDS011;62605;49.432;8.680;2022-08-19T11:57:14;4.72;;;4.28;;
10416;SDS011;62605;49.432;8.680;2022-08-19T11:59:42;6.03;;;4.45;;
10416;SDS011;62605;49.432;8.680;2022-08-19T12:02:13;4.65;;;4.25;;
10416;SDS011;62605;49.432;8.680;2022-08-19T12:04:41;5.25;;;4.75;;
10416;SDS011;62605;49.432;8.680;2022-08-19T12:07:08;4.10;;;3.72;;
10416;SDS011;62605;49.432;8.680;2022-08-19T12:09:37;3.72;;;3.42;;
10416;SDS011;62605;49.432;8.680;2022-08-19T12:12:04;4.85;;;4.22;;
10416;SDS011;62605;49.432;8.680;2022-08-19T12:14:32;4.90;;;4.03;;
10416;SDS011;62605;49.432;8.680;2022-08-19T12:16:59;4.55;;;4.15;;
10416;SDS011;62605;49.432;8.680;2022-08-19T12:19:27;4.10;;;3.70;;
10416;SDS011;62605;49.432;8.680;2022-08-19T12:21:58;4.25;;;3.95;;
10416;SDS011;62605;49.432;8.680;2022-08-19T12:24:30;7.35;;;4.65;;
10416;SDS011;62605;49.432;8.680;2022-08-19T12:26:59;4.90;;;4.32;;
10416;SDS011;62605;49.432;8.680;2022-08-19T12:29:27;4.15;;;3.75;;
10416;SDS011;62605;49.432;8.680;2022-08-19T12:31:55;5.30;;;4.38;;
10416;SDS011;62605;49.432;8.680;2022-08-19T12:34:26;5.20;;;4.70;;
10416;SDS011;62605;49.432;8.680;2022-08-19T12:36:55;5.00;;;4.47;;
10416;SDS011;62605;49.432;8.680;2022-08-19T12:39:22;5.07;;;4.47;;
10416;SDS011;62605;49.432;8.680;2022-08-19T12:41:50;5.00;;;4.50;;
10416;SDS011;62605;49.432;8.680;2022-08-19T12:44:19;6.40;;;4.82;;
10416;SDS011;62605;49.432;8.680;2022-08-19T12:46:47;4.80;;;4.40;;
10416;SDS011;62605;49.432;8.680;2022-08-19T12:49:16;4.90;;;4.40;;
10416;SDS011;62605;49.432;8.680;2022-08-19T12:51:43;5.43;;;4.95;;
10416;SDS011;62605;49.432;8.680;2022-08-19T12:54:11;5.00;;;4.60;;
10416;SDS011;62605;49.432;8.680;2022-08-19T12:56:39;4.88;;;4.38;;
10416;SDS011;62605;49.432;8.680;2022-08-19T12:59:07;5.13;;;4.63;;
10416;SDS011;62605;49.432;8.680;2022-08-19T13:01:38;4.55;;;4.13;;
10416;SDS011;62605;49.432;8.680;2022-08-19T13:04:06;4.60;;;4.20;;
10416;SDS011;62605;49.432;8.680;2022-08-19T13:06:33;4.93;;;4.43;;
10416;SDS011;62605;49.432;8.680;2022-08-19T13:09:01;4.80;;;4.40;;
10416;SDS011;62605;49.432;8.680;2022-08-19T13:11:29;4.82;;;4.32;;
10416;SDS011;62605;49.432;8.680;2022-08-19T13:13:57;6.82;;;4.38;;
10416;SDS011;62605;49.432;8.680;2022-08-19T13:16:25;4.65;;;4.25;;
10416;SDS011;62605;49.432;8.680;2022-08-19T13:18:55;4.50;;;4.10;;
10416;SDS011;62605;49.432;8.680;2022-08-19T13:21:26;5.30;;;4.22;;
10416;SDS011;62605;49.432;8.680;2022-08-19T13:23:55;4.45;;;4.05;;
10416;SDS011;62605;49.432;8.680;2022-08-19T13:26:22;4.30;;;4.00;;
10416;SDS011;62605;49.432;8.680;2022-08-19T13:28:49;4.15;;;3.72;;
10416;SDS011;62605;49.432;8.680;2022-08-19T13:31:35;6.30;;;3.72;;
10416;SDS011;62605;49.432;8.680;2022-08-19T13:34:26;4.53;;;4.07;;
10416;SDS011;62605;49.432;8.680;2022-08-19T13:36:55;3.90;;;3.60;;
10416;SDS011;62605;49.432;8.680;2022-08-19T13:39:23;3.97;;;3.65;;
10416;SDS011;62605;49.432;8.680;2022-08-19T13:41:50;3.92;;;3.63;;
10416;SDS011;62605;49.432;8.680;2022-08-19T13:44:18;3.97;;;3.58;;
10416;SDS011;62605;49.432;8.680;2022-08-19T13:46:45;4.10;;;3.70;;
10416;SDS011;62605;49.432;8.680;2022-08-19T13:49:14;3.30;;;3.05;;
10416;SDS011;62605;49.432;8.680;2022-08-19T13:51:43;4.05;;;3.63;;
10416;SDS011;62605;49.432;8.680;2022-08-19T13:54:11;4.25;;;3.85;;
10416;SDS011;62605;49.432;8.680;2022-08-19T13:56:42;4.22;;;3.67;;
10416;SDS011;62605;49.432;8.680;2022-08-19T13:59:11;6.22;;;3.70;;
10416;SDS011;62605;49.432;8.680;2022-08-19T14:01:39;4.35;;;3.33;;
10416;SDS011;62605;49.432;8.680;2022-08-19T14:04:07;4.22;;;3.35;;
10416;SDS011;62605;49.432;8.680;2022-08-19T14:06:35;4.35;;;3.58;;
10416;SDS011;62605;49.432;8.680;2022-08-19T14:09:03;3.55;;;3.25;;
10416;SDS011;62605;49.432;8.680;2022-08-19T14:11:30;4.07;;;3.67;;
10416;SDS011;62605;49.432;8.680;2022-08-19T14:14:02;3.53;;;3.22;;
10416;SDS011;62605;49.432;8.680;2022-08-19T14:16:29;5.88;;;3.20;;
10416;SDS011;62605;49.432;8.680;2022-08-19T14:18:58;3.10;;;2.88;;
10416;SDS011;62605;49.432;8.680;2022-08-19T14:21:25;4.93;;;3.60;;
10416;SDS011;62605;49.432;8.680;2022-08-19T14:23:53;3.75;;;3.45;;
10416;SDS011;62605;49.432;8.680;2022-08-19T14:26:21;4.13;;;3.72;;
10416;SDS011;62605;49.432;8.680;2022-08-19T14:28:49;3.83;;;3.42;;
10416;SDS011;62605;49.432;8.680;2022-08-19T14:31:17;4.85;;;4.30;;
10416;SDS011;62605;49.432;8.680;2022-08-19T14:33:49;4.00;;;3.70;;
10416;SDS011;62605;49.432;8.680;2022-08-19T14:36:16;3.75;;;3.30;;
10416;SDS011;62605;49.432;8.680;2022-08-19T14:38:44;4.47;;;3.58;;
10416;SDS011;62605;49.432;8.680;2022-08-19T14:41:12;3.58;;;3.28;;
10416;SDS011;62605;49.432;8.680;2022-08-19T14:43:44;4.10;;;3.67;;
10416;SDS011;62605;49.432;8.680;2022-08-19T14:46:12;3.95;;;3.55;;
10416;SDS011;62605;49.432;8.680;2022-08-19T14:48:40;3.65;;;3.35;;